createdAt,value
2023-03-06T00:00:28.545Z,99210.56
2023-03-06T00:02:57.805Z,99215.94
2023-03-06T00:05:27.562Z,99213.66
2023-03-06T00:07:56.377Z,99216.38
2023-03-06T00:10:26.982Z,99219.91
2023-03-06T00:12:59.364Z,99209.84
2023-03-06T00:15:29.178Z,99212.00
2023-03-06T00:17:58.934Z,99214.31
2023-03-06T00:20:28.840Z,99219.78
2023-03-06T00:22:57.996Z,99224.03
2023-03-06T00:25:27.180Z,99211.59
2023-03-06T00:27:57.895Z,99218.34
2023-03-06T00:30:27.180Z,99220.44
2023-03-06T00:32:56.327Z,99218.59
2023-03-06T00:35:25.564Z,99214.66
2023-03-06T00:37:54.389Z,99212.03
2023-03-06T00:40:23.698Z,99213.38
2023-03-06T00:42:52.948Z,99214.06
2023-03-06T00:45:23.510Z,99208.69
2023-03-06T00:47:52.830Z,99213.41
2023-03-06T00:50:22.030Z,99215.75
2023-03-06T00:52:50.761Z,99211.34
2023-03-06T00:55:20.103Z,99219.50
2023-03-06T00:57:49.317Z,99210.94
2023-03-06T01:00:19.170Z,99220.31
2023-03-06T01:02:49.658Z,99213.22
2023-03-06T01:05:18.857Z,99210.09
2023-03-06T01:07:47.679Z,99208.03
2023-03-06T01:10:16.927Z,99212.22
2023-03-06T01:12:46.775Z,99205.69
2023-03-06T01:15:15.971Z,99201.81
2023-03-06T01:17:45.214Z,99207.94
2023-03-06T01:20:17.158Z,99200.22
2023-03-06T01:22:45.859Z,99202.44
2023-03-06T01:25:15.100Z,99201.16
2023-03-06T01:27:44.910Z,99196.72
2023-03-06T01:30:14.660Z,99198.16
2023-03-06T01:32:43.754Z,99194.94
2023-03-06T01:35:13.910Z,99196.81
2023-03-06T01:37:44.057Z,99196.81
2023-03-06T01:40:14.371Z,99189.03
2023-03-06T01:42:45.409Z,99194.13
2023-03-06T01:45:53.007Z,99190.97
2023-03-06T01:48:23.443Z,99187.41
2023-03-06T01:50:54.380Z,99187.34
2023-03-06T01:53:25.413Z,99185.44
2023-03-06T01:55:54.253Z,99185.56
2023-03-06T01:58:24.120Z,99179.25
2023-03-06T02:00:53.251Z,99179.44
2023-03-06T02:03:25.008Z,99186.53
2023-03-06T02:05:54.615Z,99188.28
2023-03-06T02:08:25.754Z,99185.28
2023-03-06T02:11:00.039Z,99185.16
2023-03-06T02:13:29.226Z,99183.06
2023-03-06T02:15:58.386Z,99179.47
2023-03-06T02:18:27.662Z,99184.22
2023-03-06T02:20:58.306Z,99179.94
2023-03-06T02:23:33.440Z,99184.00
2023-03-06T02:26:04.406Z,99183.59
2023-03-06T02:28:33.849Z,99183.50
2023-03-06T02:31:02.978Z,99185.66
2023-03-06T02:33:32.130Z,99183.28
2023-03-06T02:36:02.660Z,99185.13
2023-03-06T02:38:35.250Z,99181.41
2023-03-06T02:41:06.868Z,99180.19
2023-03-06T02:43:39.390Z,99179.66
2023-03-06T02:46:09.075Z,99183.00
2023-03-06T02:48:38.108Z,99179.66
2023-03-06T02:51:07.543Z,99183.28
2023-03-06T02:53:36.600Z,99188.47
2023-03-06T02:56:07.918Z,99185.44
2023-03-06T02:58:36.946Z,99180.38
2023-03-06T03:01:06.734Z,99175.59
2023-03-06T03:03:36.667Z,99176.09
2023-03-06T03:06:07.177Z,99184.81
2023-03-06T03:08:37.440Z,99180.41
2023-03-06T03:11:09.367Z,99175.13
2023-03-06T03:13:41.540Z,99177.34
2023-03-06T03:16:16.743Z,99179.47
2023-03-06T03:18:48.129Z,99175.78
2023-03-06T03:21:19.338Z,99170.28
2023-03-06T03:23:50.192Z,99174.22
2023-03-06T03:26:22.718Z,99177.66
2023-03-06T03:29:12.142Z,99171.44
2023-03-06T03:31:41.161Z,99181.19
2023-03-06T03:34:10.230Z,99180.88
2023-03-06T03:36:41.987Z,99170.81
2023-03-06T03:39:12.622Z,99172.91
2023-03-06T03:41:45.137Z,99165.72
2023-03-06T03:44:15.008Z,99167.88
2023-03-06T03:46:44.939Z,99166.63
2023-03-06T03:49:19.239Z,99170.19
2023-03-06T03:51:50.334Z,99165.00
2023-03-06T03:54:20.094Z,99169.41
2023-03-06T03:56:52.736Z,99161.09
2023-03-06T03:59:26.940Z,99165.00
2023-03-06T04:02:07.549Z,99163.53
2023-03-06T04:04:43.317Z,99171.44
2023-03-06T04:07:13.478Z,99160.75
2023-03-06T04:09:43.246Z,99154.50
2023-03-06T04:12:13.908Z,99158.00
2023-03-06T04:14:43.901Z,99156.03
2023-03-06T04:17:13.138Z,99161.03
2023-03-06T04:19:42.128Z,99160.44
2023-03-06T04:22:11.239Z,99157.47
2023-03-06T04:24:42.008Z,99154.38
2023-03-06T04:27:11.875Z,99162.78
2023-03-06T04:29:42.705Z,99161.47
2023-03-06T04:32:12.234Z,99154.91
2023-03-06T04:34:42.233Z,99154.69
2023-03-06T04:37:14.870Z,99148.97
2023-03-06T04:39:44.271Z,99149.63
2023-03-06T04:42:13.411Z,99149.59
2023-03-06T04:44:44.016Z,99148.50
2023-03-06T04:47:13.450Z,99151.97
2023-03-06T04:49:42.249Z,99147.50
2023-03-06T04:52:11.568Z,99137.53
2023-03-06T04:54:41.546Z,99145.66
2023-03-06T04:57:11.689Z,99143.56
2023-03-06T04:59:40.838Z,99143.78
2023-03-06T05:02:11.467Z,99146.25
2023-03-06T05:04:40.301Z,99136.41
2023-03-06T05:07:09.635Z,99136.06
2023-03-06T05:09:39.214Z,99135.22
2023-03-06T05:12:08.917Z,99133.31
2023-03-06T05:14:38.320Z,99142.66
2023-03-06T05:17:07.547Z,99141.88
2023-03-06T05:19:37.780Z,99139.38
2023-03-06T05:22:07.471Z,99137.06
2023-03-06T05:24:36.579Z,99138.81
2023-03-06T05:27:06.058Z,99139.47
2023-03-06T05:29:35.248Z,99134.97
2023-03-06T05:32:04.437Z,99133.50
2023-03-06T05:34:33.196Z,99132.72
2023-03-06T05:37:03.766Z,99137.00
2023-03-06T05:39:32.914Z,99132.31
2023-03-06T05:42:02.022Z,99133.06
2023-03-06T05:44:33.466Z,99135.59
2023-03-06T05:47:03.050Z,99136.41
2023-03-06T05:49:33.775Z,99142.84
2023-03-06T05:52:06.766Z,99147.22
2023-03-06T05:54:37.351Z,99143.66
2023-03-06T05:57:07.365Z,99152.34
2023-03-06T05:59:36.148Z,99146.22
2023-03-06T06:02:05.810Z,99149.66
2023-03-06T06:04:34.663Z,99147.94
2023-03-06T06:07:06.282Z,99142.41
2023-03-06T06:09:36.581Z,99144.09
2023-03-06T06:12:06.119Z,99143.06
2023-03-06T06:14:36.264Z,99147.81
2023-03-06T06:17:07.362Z,99151.66
2023-03-06T06:19:36.115Z,99156.00
2023-03-06T06:22:08.074Z,99154.00
2023-03-06T06:24:37.358Z,99156.44
2023-03-06T06:27:07.161Z,99152.19
2023-03-06T06:29:37.285Z,99153.88
2023-03-06T06:32:07.436Z,99149.38
2023-03-06T06:34:36.495Z,99157.53
2023-03-06T06:37:05.737Z,99152.59
2023-03-06T06:39:36.732Z,99150.75
2023-03-06T06:42:28.592Z,99148.69
2023-03-06T06:44:55.747Z,99156.47
2023-03-06T06:47:25.863Z,99153.38
2023-03-06T06:49:55.033Z,99154.84
2023-03-06T06:52:24.952Z,99149.63
2023-03-06T06:54:55.888Z,99146.56
2023-03-06T06:57:25.387Z,99140.72
2023-03-06T06:59:54.886Z,99144.84
2023-03-06T07:02:24.194Z,99137.88
2023-03-06T07:05:03.811Z,99135.56
2023-03-06T07:07:36.689Z,99126.28
2023-03-06T07:10:09.794Z,99132.78
2023-03-06T07:12:39.153Z,99127.81
2023-03-06T07:15:09.889Z,99122.84
2023-03-06T07:17:39.194Z,99123.09
2023-03-06T07:20:10.718Z,99124.63
2023-03-06T07:22:50.420Z,99123.22
2023-03-06T07:25:22.708Z,99128.88
2023-03-06T07:27:54.526Z,99125.03
2023-03-06T07:30:24.702Z,99138.16
2023-03-06T07:32:55.243Z,99131.84
2023-03-06T07:35:25.875Z,99135.75
2023-03-06T07:37:54.989Z,99134.19
2023-03-06T07:40:26.184Z,99134.53
2023-03-06T07:43:06.048Z,99131.38
2023-03-06T07:45:47.072Z,99135.06
2023-03-06T07:48:16.053Z,99138.56
2023-03-06T07:50:45.250Z,99129.78
2023-03-06T07:53:14.446Z,99131.66
2023-03-06T07:55:45.472Z,99121.91
2023-03-06T07:58:14.759Z,99132.38
2023-03-06T08:00:43.970Z,99132.28
2023-03-06T08:03:13.995Z,99129.00
2023-03-06T08:05:43.223Z,99127.50
2023-03-06T08:08:12.781Z,99130.94
2023-03-06T08:10:41.677Z,99135.41
2023-03-06T08:13:12.570Z,99128.13
2023-03-06T08:15:41.908Z,99130.66
2023-03-06T08:18:11.715Z,99130.34
2023-03-06T08:20:40.897Z,99124.78
2023-03-06T08:23:10.015Z,99129.38
2023-03-06T08:25:38.866Z,99129.50
2023-03-06T08:28:07.956Z,99123.47
2023-03-06T08:30:38.634Z,99130.84
2023-03-06T08:33:08.430Z,99128.59
2023-03-06T08:35:37.835Z,99119.94
2023-03-06T08:38:07.196Z,99131.19
2023-03-06T08:40:36.283Z,99122.97
2023-03-06T08:43:07.241Z,99137.72
2023-03-06T08:45:43.482Z,99111.13
2023-03-06T08:48:16.963Z,99108.47
2023-03-06T08:50:49.912Z,99106.34
2023-03-06T08:53:33.458Z,99099.88
2023-03-06T08:56:20.365Z,99101.53
2023-03-06T08:58:55.867Z,99103.09
2023-03-06T09:01:31.787Z,99101.47
2023-03-06T09:04:07.203Z,99094.00
2023-03-06T09:06:42.479Z,99097.22
2023-03-06T09:09:24.229Z,99104.63
2023-03-06T09:12:00.108Z,99102.78
2023-03-06T09:14:40.125Z,99102.56
2023-03-06T09:17:16.762Z,99114.81
2023-03-06T09:19:51.947Z,99115.63
2023-03-06T09:22:27.857Z,99114.03
2023-03-06T09:25:04.418Z,99120.94
2023-03-06T09:27:36.345Z,99115.34
2023-03-06T09:30:13.162Z,99116.13
2023-03-06T09:32:49.510Z,99113.16
2023-03-06T09:35:23.678Z,99106.41
2023-03-06T09:38:00.724Z,99105.59
2023-03-06T09:40:45.661Z,99107.38
2023-03-06T09:43:24.778Z,99108.13
2023-03-06T09:46:00.887Z,99106.53
2023-03-06T09:48:46.473Z,99104.47
2023-03-06T09:51:22.547Z,99100.88
2023-03-06T09:54:04.542Z,99096.25
2023-03-06T09:56:39.897Z,99100.44
2023-03-06T09:59:19.994Z,99099.38
2023-03-06T10:02:02.929Z,99093.03
2023-03-06T10:04:44.644Z,99081.25
2023-03-06T10:07:24.640Z,99085.56
2023-03-06T10:10:00.548Z,99086.00
2023-03-06T10:12:41.431Z,99083.00
2023-03-06T10:15:21.761Z,99088.53
2023-03-06T10:17:59.256Z,99086.28
2023-03-06T10:20:40.461Z,99080.06
2023-03-06T10:23:27.995Z,99080.16
2023-03-06T10:26:04.335Z,99090.00
2023-03-06T10:28:40.236Z,99080.72
2023-03-06T10:31:19.415Z,99079.78
2023-03-06T10:33:55.533Z,99090.28
2023-03-06T10:36:28.416Z,99088.44
2023-03-06T10:38:59.719Z,99082.00
2023-03-06T10:41:30.218Z,99078.63
2023-03-06T10:44:16.922Z,99071.53
2023-03-06T10:46:47.427Z,99079.00
2023-03-06T10:49:34.684Z,99083.38
2023-03-06T10:52:07.468Z,99065.13
2023-03-06T10:54:38.381Z,99052.59
2023-03-06T10:57:22.914Z,99062.09
2023-03-06T10:59:55.139Z,99060.31
2023-03-06T11:02:30.241Z,99060.38
2023-03-06T11:05:00.444Z,99047.94
2023-03-06T11:07:32.801Z,99049.16
2023-03-06T11:10:06.228Z,99052.84
2023-03-06T11:12:37.403Z,99040.22
2023-03-06T11:15:21.144Z,99041.06
2023-03-06T11:17:53.826Z,99031.38
2023-03-06T11:20:24.912Z,99026.00
2023-03-06T11:22:58.414Z,99039.28
2023-03-06T11:25:31.969Z,99019.19
2023-03-06T11:28:04.523Z,99025.25
2023-03-06T11:30:39.531Z,99006.53
2023-03-06T11:33:18.147Z,99007.19
2023-03-06T11:35:52.563Z,99003.47
2023-03-06T11:38:27.546Z,99001.97
2023-03-06T11:40:59.414Z,98997.84
2023-03-06T11:43:34.026Z,98987.69
2023-03-06T11:46:07.118Z,98991.03
2023-03-06T11:48:40.976Z,98986.25
2023-03-06T11:51:16.441Z,98988.69
2023-03-06T11:53:49.213Z,98982.78
2023-03-06T11:56:31.402Z,98984.94
2023-03-06T11:59:10.294Z,98984.84
2023-03-06T12:01:42.324Z,98975.50
2023-03-06T12:04:47.605Z,98985.53
2023-03-06T12:07:30.395Z,98984.00
2023-03-06T12:10:08.249Z,98980.28
2023-03-06T12:13:00.598Z,98976.47
2023-03-06T12:15:56.835Z,98965.63
2023-03-06T12:18:43.044Z,98964.41
2023-03-06T12:21:17.414Z,98968.03
2023-03-06T12:24:04.083Z,98965.06
2023-03-06T12:26:56.865Z,98957.94
2023-03-06T12:30:05.765Z,98955.56
2023-03-06T12:32:44.587Z,98958.13
2023-03-06T12:35:40.380Z,98951.09
2023-03-06T12:38:24.479Z,98951.88
2023-03-06T12:41:02.426Z,98954.47
2023-03-06T12:44:06.340Z,98957.81
2023-03-06T12:46:40.367Z,98945.94
2023-03-06T12:49:17.792Z,98946.00
2023-03-06T12:51:54.779Z,98926.56
2023-03-06T12:54:28.951Z,98930.81
2023-03-06T12:56:59.696Z,98936.72
2023-03-06T12:59:47.633Z,98935.31
2023-03-06T13:02:55.816Z,98934.09
2023-03-06T13:05:56.692Z,98932.59
2023-03-06T13:08:41.457Z,98922.56
2023-03-06T13:11:25.208Z,98912.88
2023-03-06T13:13:55.786Z,98923.53
2023-03-06T13:16:30.465Z,98918.41
2023-03-06T13:19:13.743Z,98923.50
2023-03-06T13:22:03.570Z,98912.50
2023-03-06T13:24:37.634Z,98915.13
2023-03-06T13:27:10.876Z,98911.69
2023-03-06T13:29:52.307Z,98911.81
2023-03-06T13:32:35.505Z,98908.50
2023-03-06T13:35:52.256Z,98912.63
2023-03-06T13:38:56.746Z,98900.78
2023-03-06T13:41:54.796Z,98900.66
2023-03-06T13:44:48.917Z,98911.38
2023-03-06T13:48:02.478Z,98900.75
2023-03-06T13:50:43.701Z,98900.81
2023-03-06T13:53:57.283Z,98902.84
2023-03-06T13:56:52.329Z,98898.81
2023-03-06T13:59:54.396Z,98898.56
2023-03-06T14:02:42.718Z,98894.53
2023-03-06T14:05:14.203Z,98892.63
2023-03-06T14:07:46.049Z,98888.94
2023-03-06T14:10:24.136Z,98888.34
2023-03-06T14:13:03.382Z,98892.63
2023-03-06T14:15:41.513Z,98887.78
2023-03-06T14:18:17.869Z,98894.69
2023-03-06T14:20:50.094Z,98887.66
2023-03-06T14:23:28.104Z,98882.44
2023-03-06T14:26:02.761Z,98876.38
2023-03-06T14:28:33.550Z,98880.53
2023-03-06T14:31:06.140Z,98874.59
2023-03-06T14:33:41.486Z,98877.25
2023-03-06T14:36:15.039Z,98882.69
2023-03-06T14:38:49.206Z,98871.28
2023-03-06T14:41:30.376Z,98881.88
2023-03-06T14:44:16.753Z,98868.97
2023-03-06T14:46:46.664Z,98873.03
2023-03-06T14:49:16.577Z,98877.59
2023-03-06T14:51:48.152Z,98866.66
2023-03-06T14:54:21.686Z,98869.16
2023-03-06T14:56:53.467Z,98877.69
2023-03-06T14:59:25.943Z,98861.84
2023-03-06T15:01:58.896Z,98868.72
2023-03-06T15:04:31.943Z,98866.75
2023-03-06T15:07:01.590Z,98865.50
2023-03-06T15:09:33.565Z,98868.06
2023-03-06T15:12:04.353Z,98872.44
2023-03-06T15:14:36.773Z,98870.09
2023-03-06T15:17:26.986Z,98873.03
2023-03-06T15:19:57.498Z,98872.97
2023-03-06T15:22:32.375Z,98865.50
2023-03-06T15:25:26.905Z,98866.34
2023-03-06T15:27:57.640Z,98865.00
2023-03-06T15:30:30.488Z,98869.19
2023-03-06T15:33:24.238Z,98864.84
2023-03-06T15:35:57.526Z,98860.94
2023-03-06T15:38:36.511Z,98867.75
2023-03-06T15:41:23.635Z,98868.56
2023-03-06T15:43:53.546Z,98863.78
2023-03-06T15:46:22.576Z,98871.59
2023-03-06T15:48:55.735Z,98865.97
2023-03-06T15:51:25.050Z,98865.81
2023-03-06T15:53:59.787Z,98858.53
2023-03-06T15:56:39.928Z,98864.69
2023-03-06T15:59:11.720Z,98863.09
2023-03-06T16:01:43.090Z,98866.16
2023-03-06T16:04:12.432Z,98866.38
2023-03-06T16:06:44.490Z,98864.16
2023-03-06T16:09:14.211Z,98872.47
2023-03-06T16:11:45.447Z,98873.59
2023-03-06T16:14:21.511Z,98876.53
2023-03-06T16:16:51.146Z,98868.66
2023-03-06T16:19:26.369Z,98873.31
2023-03-06T16:21:56.626Z,98870.50
2023-03-06T16:24:26.757Z,98878.66
2023-03-06T16:26:59.885Z,98873.22
2023-03-06T16:29:30.165Z,98876.91
2023-03-06T16:32:01.913Z,98874.81
2023-03-06T16:34:31.349Z,98874.34
2023-03-06T16:37:00.556Z,98872.81
2023-03-06T16:39:29.798Z,98880.63
2023-03-06T16:42:00.667Z,98875.44
2023-03-06T16:44:30.192Z,98875.84
2023-03-06T16:47:01.972Z,98878.09
2023-03-06T16:49:31.884Z,98874.66
2023-03-06T16:52:04.721Z,98877.81
2023-03-06T16:54:34.024Z,98879.00
2023-03-06T16:57:04.719Z,98881.66
2023-03-06T16:59:34.034Z,98876.22
2023-03-06T17:02:03.219Z,98886.66
2023-03-06T17:04:32.103Z,98884.59
2023-03-06T17:07:01.519Z,98881.03
2023-03-06T17:09:31.672Z,98878.41
2023-03-06T17:12:03.810Z,98883.47
2023-03-06T17:14:35.605Z,98880.81
2023-03-06T17:17:05.482Z,98879.59
2023-03-06T17:19:35.247Z,98878.78
2023-03-06T17:22:05.264Z,98883.97
2023-03-06T17:24:35.457Z,98886.03
2023-03-06T17:27:07.594Z,98880.22
2023-03-06T17:29:38.613Z,98890.88
2023-03-06T17:32:10.932Z,98880.25
2023-03-06T17:34:41.700Z,98885.28
2023-03-06T17:37:13.150Z,98879.91
2023-03-06T17:39:43.636Z,98876.19
2023-03-06T17:42:15.791Z,98876.19
2023-03-06T17:44:45.158Z,98879.44
2023-03-06T17:47:14.260Z,98878.41
2023-03-06T17:49:43.070Z,98873.25
2023-03-06T17:52:12.880Z,98876.47
2023-03-06T17:54:43.405Z,98874.50
2023-03-06T17:57:17.081Z,98872.97
2023-03-06T17:59:48.927Z,98873.59
2023-03-06T18:02:19.258Z,98880.03
2023-03-06T18:04:48.335Z,98864.59
2023-03-06T18:07:17.709Z,98863.41
2023-03-06T18:09:47.153Z,98866.50
2023-03-06T18:12:16.876Z,98870.22
2023-03-06T18:14:48.786Z,98872.56
2023-03-06T18:17:18.272Z,98870.75
2023-03-06T18:19:46.959Z,98871.19
2023-03-06T18:22:16.259Z,98875.50
2023-03-06T18:24:45.398Z,98875.44
2023-03-06T18:27:14.865Z,98878.38
2023-03-06T18:29:45.649Z,98881.44
2023-03-06T18:32:16.849Z,98876.81
2023-03-06T18:34:46.560Z,98869.56
2023-03-06T18:37:15.763Z,98876.00
2023-03-06T18:39:45.009Z,98870.59
2023-03-06T18:42:14.193Z,98873.44
2023-03-06T18:44:44.141Z,98875.94
2023-03-06T18:47:13.821Z,98880.44
2023-03-06T18:49:46.609Z,98879.53
2023-03-06T18:52:15.932Z,98880.56
2023-03-06T18:54:45.358Z,98878.22
2023-03-06T18:57:14.438Z,98882.06
2023-03-06T18:59:43.837Z,98872.59
2023-03-06T19:02:13.941Z,98875.94
2023-03-06T19:04:42.780Z,98873.66
2023-03-06T19:07:14.483Z,98862.25
2023-03-06T19:09:45.376Z,98863.50
2023-03-06T19:12:15.663Z,98864.00
2023-03-06T19:14:44.606Z,98856.28
2023-03-06T19:17:13.851Z,98859.19
2023-03-06T19:19:45.084Z,98861.03
2023-03-06T19:22:15.793Z,98859.25
2023-03-06T19:24:46.984Z,98863.47
2023-03-06T19:27:16.459Z,98858.03
2023-03-06T19:29:45.726Z,98856.31
2023-03-06T19:32:15.511Z,98854.84
2023-03-06T19:34:44.498Z,98858.78
2023-03-06T19:37:13.759Z,98861.75
2023-03-06T19:39:44.794Z,98858.44
2023-03-06T19:42:15.155Z,98859.28
2023-03-06T19:44:45.537Z,98855.25
2023-03-06T19:47:14.412Z,98846.84
2023-03-06T19:49:43.269Z,98851.94
2023-03-06T19:52:12.583Z,98854.38
2023-03-06T19:54:43.410Z,98856.16
2023-03-06T19:57:12.650Z,98855.66
2023-03-06T19:59:41.986Z,98852.97
2023-03-06T20:02:12.025Z,98857.84
2023-03-06T20:04:41.000Z,98852.69
2023-03-06T20:07:10.142Z,98855.38
2023-03-06T20:09:39.267Z,98861.78
2023-03-06T20:12:10.033Z,98852.84
2023-03-06T20:14:39.260Z,98852.00
2023-03-06T20:17:09.138Z,98862.03
2023-03-06T20:19:38.278Z,98862.31
2023-03-06T20:22:07.491Z,98858.69
2023-03-06T20:24:36.723Z,98863.94
2023-03-06T20:27:06.240Z,98860.50
2023-03-06T20:29:37.217Z,98859.34
2023-03-06T20:32:08.818Z,98856.56
2023-03-06T20:34:39.219Z,98856.16
2023-03-06T20:37:08.775Z,98847.97
2023-03-06T20:39:38.770Z,98858.41
2023-03-06T20:42:08.075Z,98860.16
2023-03-06T20:44:38.692Z,98856.75
2023-03-06T20:47:08.090Z,98859.53
2023-03-06T20:49:37.419Z,98864.81
2023-03-06T20:52:06.819Z,98856.56
2023-03-06T20:54:36.063Z,98859.09
2023-03-06T20:57:05.433Z,98855.88
2023-03-06T20:59:34.505Z,98858.72
2023-03-06T21:02:05.185Z,98854.75
2023-03-06T21:04:33.954Z,98856.97
2023-03-06T21:07:03.184Z,98863.25
2023-03-06T21:09:34.578Z,98855.41
2023-03-06T21:12:03.711Z,98844.94
2023-03-06T21:14:33.160Z,98846.19
2023-03-06T21:17:02.359Z,98843.84
2023-03-06T21:19:32.651Z,98853.03
2023-03-06T21:22:01.841Z,98855.81
2023-03-06T21:24:31.095Z,98856.34
2023-03-06T21:27:00.241Z,98846.44
2023-03-06T21:29:29.358Z,98845.75
2023-03-06T21:31:58.576Z,98842.59
2023-03-06T21:34:27.776Z,98832.38
2023-03-06T21:36:58.418Z,98839.53
2023-03-06T21:39:27.724Z,98840.69
2023-03-06T21:41:56.796Z,98848.09
2023-03-06T21:44:25.973Z,98850.34
2023-03-06T21:46:54.696Z,98844.53
2023-03-06T21:49:26.258Z,98846.34
2023-03-06T21:51:55.432Z,98844.69
2023-03-06T21:54:26.964Z,98841.53
2023-03-06T21:56:56.410Z,98847.88
2023-03-06T21:59:25.841Z,98851.03
2023-03-06T22:01:54.661Z,98853.09
2023-03-06T22:04:23.830Z,98860.13
2023-03-06T22:06:53.062Z,98861.09
2023-03-06T22:09:22.923Z,98858.88
2023-03-06T22:11:53.732Z,98848.28
2023-03-06T22:14:23.078Z,98867.66
2023-03-06T22:16:52.726Z,98860.84
2023-03-06T22:19:21.883Z,98868.25
2023-03-06T22:21:50.980Z,98868.00
2023-03-06T22:24:20.201Z,98866.03
2023-03-06T22:26:49.338Z,98857.09
2023-03-06T22:29:19.923Z,98871.03
2023-03-06T22:31:48.421Z,98871.56
2023-03-06T22:34:17.614Z,98867.56
2023-03-06T22:36:46.711Z,98873.06
2023-03-06T22:39:15.939Z,98867.00
2023-03-06T22:41:45.849Z,98871.69
2023-03-06T22:44:17.428Z,98876.81
2023-03-06T22:46:47.965Z,98868.28
2023-03-06T22:49:17.209Z,98876.38
2023-03-06T22:51:46.323Z,98877.38
2023-03-06T22:54:15.502Z,98882.88
2023-03-06T22:56:45.332Z,98889.75
2023-03-06T22:59:14.510Z,98892.66
2023-03-06T23:01:43.358Z,98894.56
2023-03-06T23:04:14.148Z,98893.31
2023-03-06T23:06:44.859Z,98894.22
2023-03-06T23:09:15.203Z,98886.03
2023-03-06T23:12:02.747Z,98888.63
2023-03-06T23:14:51.378Z,98892.16
2023-03-06T23:17:39.190Z,98889.66
2023-03-06T23:20:28.531Z,98893.97
2023-03-06T23:23:15.762Z,98896.91
2023-03-06T23:25:45.216Z,98905.03
2023-03-06T23:28:14.375Z,98910.47
2023-03-06T23:30:43.892Z,98917.16
2023-03-06T23:33:12.903Z,98915.50
2023-03-06T23:35:44.292Z,98909.31
2023-03-06T23:38:13.447Z,98915.53
2023-03-06T23:40:42.289Z,98918.28
2023-03-06T23:43:11.405Z,98917.59
2023-03-06T23:45:40.488Z,98922.53
2023-03-06T23:48:09.637Z,98916.78
2023-03-06T23:50:42.618Z,98918.72
2023-03-06T23:53:11.802Z,98912.63
2023-03-06T23:55:42.671Z,98923.97
2023-03-06T23:58:12.878Z,98916.78
